createdAt,value
2023-03-05T00:01:35.617Z,100783.06
2023-03-05T00:04:07.671Z,100779.03
2023-03-05T00:06:35.651Z,100775.69
2023-03-05T00:09:04.836Z,100775.50
2023-03-05T00:11:33.623Z,100767.81
2023-03-05T00:14:04.587Z,100761.34
2023-03-05T00:16:33.615Z,100764.97
2023-03-05T00:19:02.114Z,100760.38
2023-03-05T00:21:35.776Z,100752.22
2023-03-05T00:24:13.208Z,100737.47
2023-03-05T00:26:41.986Z,100751.56
2023-03-05T00:29:12.656Z,100743.81
2023-03-05T00:31:40.933Z,100735.34
2023-03-05T00:34:15.503Z,100730.53
2023-03-05T00:36:51.713Z,100733.75
2023-03-05T00:39:21.796Z,100722.41
2023-03-05T00:41:52.427Z,100722.44
2023-03-05T00:44:21.334Z,100721.41
2023-03-05T00:46:49.460Z,100712.38
2023-03-05T00:49:17.518Z,100713.38
2023-03-05T00:51:45.547Z,100706.84
2023-03-05T00:54:13.642Z,100709.41
2023-03-05T00:56:41.506Z,100701.31
2023-03-05T00:59:09.790Z,100703.13
2023-03-05T01:01:38.003Z,100696.00
2023-03-05T01:04:06.465Z,100692.69
2023-03-05T01:06:35.130Z,100689.91
2023-03-05T01:09:03.505Z,100689.56
2023-03-05T01:11:32.138Z,100679.78
2023-03-05T01:14:00.043Z,100666.72
2023-03-05T01:16:28.015Z,100673.56
2023-03-05T01:18:55.936Z,100669.38
2023-03-05T01:21:24.035Z,100672.41
2023-03-05T01:23:52.290Z,100671.03
2023-03-05T01:26:20.179Z,100670.84
2023-03-05T01:28:48.176Z,100664.81
2023-03-05T01:31:16.128Z,100663.75
2023-03-05T01:33:44.168Z,100662.13
2023-03-05T01:36:16.843Z,100663.03
2023-03-05T01:38:47.457Z,100664.28
2023-03-05T01:41:21.546Z,100658.69
2023-03-05T01:43:52.808Z,100647.78
2023-03-05T01:46:28.479Z,100656.50
2023-03-05T01:49:41.166Z,100648.72
2023-03-05T01:52:18.039Z,100643.78
2023-03-05T01:54:53.606Z,100641.09
2023-03-05T01:57:50.070Z,100637.50
2023-03-05T02:00:39.764Z,100635.78
2023-03-05T02:03:10.673Z,100635.09
2023-03-05T02:05:44.304Z,100639.91
2023-03-05T02:08:24.281Z,100634.41
2023-03-05T02:10:58.049Z,100631.56
2023-03-05T02:13:33.974Z,100629.56
2023-03-05T02:16:35.976Z,100619.50
2023-03-05T02:19:16.828Z,100628.56
2023-03-05T02:21:56.575Z,100624.84
2023-03-05T02:24:37.760Z,100621.94
2023-03-05T02:27:06.095Z,100621.22
2023-03-05T02:29:37.498Z,100621.03
2023-03-05T02:32:09.517Z,100612.53
2023-03-05T02:34:37.824Z,100612.13
2023-03-05T02:37:10.595Z,100614.31
2023-03-05T02:39:44.235Z,100603.91
2023-03-05T02:42:14.686Z,100604.84
2023-03-05T02:44:42.677Z,100603.91
2023-03-05T02:47:20.764Z,100596.03
2023-03-05T02:53:00.235Z,100597.97
2023-03-05T02:55:36.805Z,100593.59
2023-03-05T02:58:07.702Z,100585.25
2023-03-05T03:00:38.036Z,100585.41
2023-03-05T03:03:09.713Z,100594.81
2023-03-05T03:05:37.806Z,100590.59
2023-03-05T03:08:07.021Z,100590.69
2023-03-05T03:10:43.606Z,100579.78
2023-03-05T03:13:12.411Z,100579.69
2023-03-05T03:15:40.702Z,100584.53
2023-03-05T03:18:08.853Z,100571.22
2023-03-05T03:20:39.254Z,100574.72
2023-03-05T03:23:07.758Z,100572.56
2023-03-05T03:25:36.167Z,100566.88
2023-03-05T03:28:04.743Z,100566.63
2023-03-05T03:30:32.902Z,100567.03
2023-03-05T03:33:04.049Z,100561.66
2023-03-05T03:35:32.355Z,100562.44
2023-03-05T03:38:00.712Z,100549.91
2023-03-05T03:40:35.926Z,100554.84
2023-03-05T03:43:09.877Z,100550.66
2023-03-05T03:45:46.237Z,100548.28
2023-03-05T03:48:16.983Z,100547.09
2023-03-05T03:53:39.344Z,100538.97
2023-03-05T03:56:08.013Z,100541.63
2023-03-05T03:58:36.561Z,100540.78
2023-03-05T04:01:04.983Z,100536.38
2023-03-05T04:03:33.267Z,100531.28
2023-03-05T04:06:13.820Z,100531.69
2023-03-05T04:08:42.237Z,100531.56
2023-03-05T04:11:16.517Z,100531.84
2023-03-05T04:13:46.116Z,100527.00
2023-03-05T04:16:19.498Z,100524.16
2023-03-05T04:18:47.719Z,100527.75
2023-03-05T04:21:18.727Z,100521.00
2023-03-05T04:23:49.356Z,100516.97
2023-03-05T04:26:17.334Z,100515.72
2023-03-05T04:28:49.501Z,100500.34
2023-03-05T04:31:18.050Z,100505.84
2023-03-05T04:33:46.083Z,100490.66
2023-03-05T04:36:14.144Z,100497.69
2023-03-05T04:38:42.202Z,100505.59
2023-03-05T04:41:10.458Z,100499.84
2023-03-05T04:43:38.846Z,100497.16
2023-03-05T04:46:07.073Z,100491.09
2023-03-05T04:48:35.739Z,100495.34
2023-03-05T04:51:04.005Z,100486.75
2023-03-05T04:53:32.359Z,100488.91
2023-03-05T04:56:01.560Z,100496.47
2023-03-05T04:58:56.055Z,100484.84
2023-03-05T05:01:24.138Z,100493.25
2023-03-05T05:03:52.242Z,100490.66
2023-03-05T05:06:21.084Z,100485.34
2023-03-05T05:08:59.743Z,100483.09
2023-03-05T05:11:28.635Z,100482.81
2023-03-05T05:13:57.481Z,100483.47
2023-03-05T05:16:25.778Z,100481.97
2023-03-05T05:18:53.816Z,100478.56
2023-03-05T05:21:22.514Z,100489.94
2023-03-05T05:23:53.254Z,100479.88
2023-03-05T05:26:21.226Z,100486.13
2023-03-05T05:28:49.536Z,100484.66
2023-03-05T05:31:19.784Z,100493.75
2023-03-05T05:33:49.757Z,100479.28
2023-03-05T05:36:22.653Z,100482.16
2023-03-05T05:38:50.783Z,100480.13
2023-03-05T05:41:20.166Z,100487.38
2023-03-05T05:43:52.462Z,100471.44
2023-03-05T05:46:22.408Z,100485.09
2023-03-05T05:48:51.629Z,100489.13
2023-03-05T05:51:23.346Z,100489.41
2023-03-05T05:53:52.222Z,100494.38
2023-03-05T05:56:20.756Z,100493.34
2023-03-05T05:58:49.555Z,100492.03
2023-03-05T06:01:30.531Z,100492.06
2023-03-05T06:04:00.032Z,100494.25
2023-03-05T06:06:29.232Z,100495.09
2023-03-05T06:08:57.586Z,100491.22
2023-03-05T06:11:25.638Z,100493.50
2023-03-05T06:13:53.711Z,100495.50
2023-03-05T06:16:24.675Z,100494.00
2023-03-05T06:18:56.204Z,100491.31
2023-03-05T06:21:26.863Z,100499.00
2023-03-05T06:23:54.946Z,100488.81
2023-03-05T06:26:25.544Z,100481.47
2023-03-05T06:28:54.792Z,100492.56
2023-03-05T06:31:26.679Z,100491.22
2023-03-05T06:34:01.120Z,100488.66
2023-03-05T06:36:30.682Z,100492.69
2023-03-05T06:38:59.334Z,100495.16
2023-03-05T06:41:32.739Z,100490.59
2023-03-05T06:44:04.327Z,100487.47
2023-03-05T06:46:37.403Z,100488.38
2023-03-05T06:49:07.009Z,100482.41
2023-03-05T06:51:39.700Z,100481.72
2023-03-05T06:54:15.544Z,100473.44
2023-03-05T06:56:47.046Z,100484.00
2023-03-05T06:59:17.202Z,100472.56
2023-03-05T07:01:46.065Z,100485.97
2023-03-05T07:04:16.315Z,100476.41
2023-03-05T07:06:45.619Z,100472.94
2023-03-05T07:09:17.694Z,100482.13
2023-03-05T07:11:54.292Z,100482.81
2023-03-05T07:14:24.919Z,100486.38
2023-03-05T07:16:53.146Z,100478.94
2023-03-05T07:19:21.846Z,100482.06
2023-03-05T07:21:49.854Z,100480.19
2023-03-05T07:24:25.823Z,100491.97
2023-03-05T07:26:54.088Z,100500.78
2023-03-05T07:29:23.658Z,100502.44
2023-03-05T07:32:10.036Z,100500.56
2023-03-05T07:34:46.738Z,100502.53
2023-03-05T07:37:15.531Z,100499.50
2023-03-05T07:39:47.307Z,100503.38
2023-03-05T07:43:14.521Z,100499.25
2023-03-05T07:46:04.797Z,100508.34
2023-03-05T07:48:37.848Z,100495.31
2023-03-05T07:51:36.078Z,100498.69
2023-03-05T07:54:04.243Z,100491.00
2023-03-05T07:59:45.181Z,100500.63
2023-03-05T08:02:15.186Z,100495.59
2023-03-05T08:04:46.509Z,100491.47
2023-03-05T08:07:17.905Z,100494.97
2023-03-05T08:10:21.100Z,100491.16
2023-03-05T08:12:53.497Z,100502.94
2023-03-05T08:15:29.080Z,100488.50
2023-03-05T08:20:59.425Z,100480.22
2023-03-05T08:23:28.759Z,100475.53
2023-03-05T08:26:29.826Z,100480.44
2023-03-05T08:29:27.129Z,100493.69
2023-03-05T08:35:32.114Z,100469.56
2023-03-05T08:38:00.161Z,100463.94
2023-03-05T08:41:32.082Z,100466.97
2023-03-05T08:43:35.536Z,100455.31
2023-03-05T08:46:04.790Z,100455.22
2023-03-05T08:48:45.177Z,100453.59
2023-03-05T08:51:41.813Z,100446.38
2023-03-05T08:54:26.180Z,100450.25
2023-03-05T08:57:37.461Z,100438.81
2023-03-05T09:00:07.537Z,100436.72
2023-03-05T09:02:39.094Z,100444.84
2023-03-05T09:05:08.391Z,100429.16
2023-03-05T09:07:38.171Z,100435.53
2023-03-05T09:10:11.660Z,100430.84
2023-03-05T09:12:43.404Z,100435.13
2023-03-05T09:15:38.974Z,100427.09
2023-03-05T09:18:13.337Z,100420.28
2023-03-05T09:20:44.638Z,100422.84
2023-03-05T09:23:12.856Z,100424.34
2023-03-05T09:25:41.902Z,100420.75
2023-03-05T09:28:16.310Z,100424.53
2023-03-05T09:30:59.036Z,100418.41
2023-03-05T09:33:40.166Z,100424.75
2023-03-05T09:36:37.754Z,100430.81
2023-03-05T09:39:09.233Z,100425.50
2023-03-05T09:41:54.888Z,100431.84
2023-03-05T09:45:31.835Z,100425.38
2023-03-05T09:48:34.432Z,100415.38
2023-03-05T09:51:05.515Z,100414.16
2023-03-05T09:53:49.572Z,100403.56
2023-03-05T09:57:39.267Z,100411.56
2023-03-05T10:00:31.752Z,100401.34
2023-03-05T10:03:06.672Z,100403.50
2023-03-05T10:06:22.412Z,100404.50
2023-03-05T10:09:04.080Z,100392.41
2023-03-05T10:12:08.290Z,100403.56
2023-03-05T10:14:42.543Z,100404.09
2023-03-05T10:18:49.037Z,100400.06
2023-03-05T10:22:20.544Z,100412.28
2023-03-05T10:25:19.206Z,100412.84
2023-03-05T10:28:05.847Z,100400.66
2023-03-05T10:31:35.099Z,100404.44
2023-03-05T10:35:07.002Z,100400.19
2023-03-05T10:38:05.364Z,100397.13
2023-03-05T10:41:01.702Z,100384.13
2023-03-05T10:44:08.904Z,100385.66
2023-03-05T10:46:40.086Z,100379.44
2023-03-05T10:49:39.486Z,100388.13
2023-03-05T10:52:40.622Z,100370.03
2023-03-05T10:55:23.225Z,100381.50
2023-03-05T10:57:51.451Z,100375.22
2023-03-05T11:00:30.051Z,100375.03
2023-03-05T11:03:10.727Z,100374.84
2023-03-05T11:05:58.507Z,100368.88
2023-03-05T11:08:39.776Z,100381.19
2023-03-05T11:11:17.763Z,100372.34
2023-03-05T11:14:03.806Z,100377.28
2023-03-05T11:16:49.232Z,100373.16
2023-03-05T11:19:37.628Z,100374.81
2023-03-05T11:22:33.006Z,100372.69
2023-03-05T11:25:22.664Z,100372.31
2023-03-05T11:27:57.390Z,100362.84
2023-03-05T11:30:37.839Z,100358.53
2023-03-05T11:33:22.718Z,100363.09
2023-03-05T11:36:09.406Z,100362.78
2023-03-05T11:39:08.563Z,100370.81
2023-03-05T11:42:01.270Z,100354.28
2023-03-05T11:44:55.749Z,100360.16
2023-03-05T11:47:46.834Z,100356.84
2023-03-05T11:50:34.302Z,100351.66
2023-03-05T11:53:31.623Z,100347.81
2023-03-05T11:56:27.384Z,100341.47
2023-03-05T11:59:30.291Z,100335.25
2023-03-05T12:01:58.667Z,100330.22
2023-03-05T12:04:27.476Z,100317.13
2023-03-05T12:07:04.444Z,100329.78
2023-03-05T12:09:49.827Z,100318.69
2023-03-05T12:12:57.662Z,100305.31
2023-03-05T12:16:24.401Z,100304.31
2023-03-05T12:19:30.718Z,100312.75
2023-03-05T12:21:59.257Z,100294.03
2023-03-05T12:24:28.522Z,100295.69
2023-03-05T12:27:02.514Z,100297.38
2023-03-05T12:29:33.332Z,100291.06
2023-03-05T12:32:02.810Z,100288.97
2023-03-05T12:34:39.777Z,100298.06
2023-03-05T12:37:27.586Z,100286.84
2023-03-05T12:40:11.784Z,100279.69
2023-03-05T12:42:47.587Z,100279.28
2023-03-05T12:45:16.208Z,100272.75
2023-03-05T12:48:12.774Z,100260.28
2023-03-05T12:50:40.859Z,100276.19
2023-03-05T12:53:20.798Z,100289.16
2023-03-05T12:56:31.373Z,100280.38
2023-03-05T12:59:04.251Z,100278.31
2023-03-05T13:02:00.813Z,100275.19
2023-03-05T13:04:40.158Z,100284.97
2023-03-05T13:07:21.042Z,100280.06
2023-03-05T13:09:58.781Z,100282.72
2023-03-05T13:12:30.002Z,100286.75
2023-03-05T13:15:09.723Z,100284.16
2023-03-05T13:18:03.397Z,100284.06
2023-03-05T13:20:38.414Z,100271.09
2023-03-05T13:23:27.709Z,100268.44
2023-03-05T13:26:12.440Z,100272.69
2023-03-05T13:28:42.783Z,100273.63
2023-03-05T13:31:21.333Z,100276.75
2023-03-05T13:34:08.081Z,100281.81
2023-03-05T13:36:38.417Z,100274.19
2023-03-05T13:39:07.734Z,100279.28
2023-03-05T13:41:35.771Z,100272.59
2023-03-05T13:44:03.857Z,100267.22
2023-03-05T13:46:41.238Z,100274.84
2023-03-05T13:49:28.812Z,100269.81
2023-03-05T13:52:01.588Z,100275.50
2023-03-05T13:54:30.571Z,100278.97
2023-03-05T13:57:05.295Z,100284.72
2023-03-05T13:59:38.766Z,100272.19
2023-03-05T14:02:22.239Z,100272.75
2023-03-05T14:04:50.769Z,100267.50
2023-03-05T14:07:41.505Z,100264.97
2023-03-05T14:10:36.834Z,100271.28
2023-03-05T14:13:17.965Z,100257.13
2023-03-05T14:16:13.089Z,100241.28
2023-03-05T14:18:57.720Z,100261.50
2023-03-05T14:21:41.907Z,100258.59
2023-03-05T14:24:28.642Z,100255.31
2023-03-05T14:27:13.330Z,100251.53
2023-03-05T14:29:46.984Z,100241.66
2023-03-05T14:32:36.364Z,100244.00
2023-03-05T14:35:06.808Z,100235.22
2023-03-05T14:37:42.079Z,100245.38
2023-03-05T14:40:12.953Z,100246.91
2023-03-05T14:43:03.979Z,100242.03
2023-03-05T14:45:42.913Z,100237.44
2023-03-05T14:48:18.752Z,100237.66
2023-03-05T14:50:56.811Z,100231.31
2023-03-05T14:53:35.763Z,100230.38
2023-03-05T14:56:04.045Z,100218.72
2023-03-05T14:58:36.336Z,100219.34
2023-03-05T15:01:31.245Z,100219.03
2023-03-05T15:04:07.831Z,100223.53
2023-03-05T15:06:40.209Z,100215.41
2023-03-05T15:09:11.753Z,100211.41
2023-03-05T15:11:39.867Z,100213.91
2023-03-05T15:14:07.735Z,100210.31
2023-03-05T15:16:35.946Z,100205.84
2023-03-05T15:19:03.897Z,100210.00
2023-03-05T15:21:32.292Z,100205.00
2023-03-05T15:24:00.190Z,100203.56
2023-03-05T15:26:28.257Z,100206.25
2023-03-05T15:31:24.794Z,100199.81
2023-03-05T15:33:53.413Z,100198.38
2023-03-05T15:36:21.361Z,100196.88
2023-03-05T15:38:49.443Z,100192.13
2023-03-05T15:41:17.666Z,100185.41
2023-03-05T15:43:46.053Z,100184.44
2023-03-05T15:46:14.175Z,100196.75
2023-03-05T15:48:44.379Z,100184.81
2023-03-05T15:51:24.298Z,100186.66
2023-03-05T15:53:52.470Z,100183.50
2023-03-05T15:56:20.675Z,100184.31
2023-03-05T15:58:53.364Z,100181.72
2023-03-05T16:01:23.379Z,100172.63
2023-03-05T16:03:52.442Z,100168.03
2023-03-05T16:06:23.410Z,100171.38
2023-03-05T16:09:01.774Z,100169.69
2023-03-05T16:11:33.321Z,100170.22
2023-03-05T16:14:06.781Z,100177.59
2023-03-05T16:16:39.560Z,100167.22
2023-03-05T16:19:09.671Z,100173.78
2023-03-05T16:21:37.879Z,100174.06
2023-03-05T16:24:06.210Z,100175.38
2023-03-05T16:26:40.373Z,100178.72
2023-03-05T16:29:08.993Z,100166.84
2023-03-05T16:31:38.410Z,100170.19
2023-03-05T16:34:09.483Z,100163.81
2023-03-05T16:36:37.581Z,100167.59
2023-03-05T16:39:08.486Z,100157.00
2023-03-05T16:41:36.512Z,100161.66
2023-03-05T16:44:05.035Z,100162.28
2023-03-05T16:46:35.065Z,100158.22
2023-03-05T16:49:04.194Z,100166.00
2023-03-05T16:51:32.120Z,100167.09
2023-03-05T16:54:00.075Z,100174.06
2023-03-05T16:56:28.072Z,100172.69
2023-03-05T16:58:56.495Z,100174.38
2023-03-05T17:01:30.259Z,100174.34
2023-03-05T17:03:59.655Z,100170.72
2023-03-05T17:06:31.924Z,100179.16
2023-03-05T17:09:00.524Z,100184.44
2023-03-05T17:11:33.602Z,100182.25
2023-03-05T17:14:03.849Z,100190.47
2023-03-05T17:16:32.072Z,100178.72
2023-03-05T17:19:00.418Z,100180.38
2023-03-05T17:21:28.361Z,100185.28
2023-03-05T17:23:56.892Z,100177.50
2023-03-05T17:26:24.908Z,100176.22
2023-03-05T17:28:54.457Z,100176.75
2023-03-05T17:31:22.626Z,100175.72
2023-03-05T17:33:50.866Z,100172.06
2023-03-05T17:36:21.438Z,100177.97
2023-03-05T17:38:50.889Z,100177.00
2023-03-05T17:41:20.314Z,100174.34
2023-03-05T17:43:48.960Z,100173.41
2023-03-05T17:46:17.474Z,100166.03
2023-03-05T17:48:46.119Z,100165.72
2023-03-05T17:51:16.804Z,100164.88
2023-03-05T17:53:45.549Z,100164.03
2023-03-05T17:56:17.158Z,100160.94
2023-03-05T17:58:45.327Z,100173.16
2023-03-05T18:01:21.554Z,100171.19
2023-03-05T18:03:49.551Z,100169.66
2023-03-05T18:06:17.623Z,100168.19
2023-03-05T18:08:45.836Z,100168.81
2023-03-05T18:11:14.421Z,100163.19
2023-03-05T18:13:43.349Z,100161.78
2023-03-05T18:16:16.889Z,100145.59
2023-03-05T18:18:45.399Z,100149.44
2023-03-05T18:21:18.141Z,100155.91
2023-03-05T18:23:46.301Z,100160.03
2023-03-05T18:26:14.648Z,100157.13
2023-03-05T18:28:42.694Z,100166.78
2023-03-05T18:31:10.689Z,100156.94
2023-03-05T18:33:38.917Z,100157.56
2023-03-05T18:36:09.720Z,100148.59
2023-03-05T18:38:38.467Z,100158.09
2023-03-05T18:41:07.875Z,100147.16
2023-03-05T18:43:36.625Z,100156.63
2023-03-05T18:46:05.960Z,100154.84
2023-03-05T18:48:33.936Z,100147.50
2023-03-05T18:51:02.305Z,100143.38
2023-03-05T18:53:30.368Z,100145.22
2023-03-05T18:56:04.672Z,100146.53
2023-03-05T18:58:32.630Z,100147.88
2023-03-05T19:01:01.011Z,100140.56
2023-03-05T19:03:29.033Z,100151.28
2023-03-05T19:05:57.002Z,100147.69
2023-03-05T19:08:25.093Z,100145.28
2023-03-05T19:10:54.590Z,100145.44
2023-03-05T19:13:39.639Z,100141.47
2023-03-05T19:16:36.723Z,100143.59
2023-03-05T19:19:23.830Z,100135.91
2023-03-05T19:21:59.616Z,100134.53
2023-03-05T19:24:31.449Z,100137.66
2023-03-05T19:27:01.209Z,100140.28
2023-03-05T19:29:34.282Z,100136.00
2023-03-05T19:32:02.260Z,100137.91
2023-03-05T19:34:31.238Z,100130.81
2023-03-05T19:36:59.278Z,100128.84
2023-03-05T19:39:27.275Z,100117.88
2023-03-05T19:41:55.351Z,100129.63
2023-03-05T19:44:23.528Z,100120.00
2023-03-05T19:46:51.458Z,100112.94
2023-03-05T19:49:20.562Z,100112.41
2023-03-05T19:51:49.382Z,100111.81
2023-03-05T19:54:21.257Z,100107.78
2023-03-05T19:56:52.345Z,100109.03
2023-03-05T19:59:23.013Z,100112.09
2023-03-05T20:01:51.900Z,100110.28
2023-03-05T20:04:23.718Z,100107.88
2023-03-05T20:06:51.832Z,100116.91
2023-03-05T20:09:20.041Z,100113.69
2023-03-05T20:11:48.133Z,100112.38
2023-03-05T20:14:16.175Z,100112.41
2023-03-05T20:16:44.397Z,100113.69
2023-03-05T20:19:18.444Z,100109.41
2023-03-05T20:21:46.445Z,100101.13
2023-03-05T20:24:18.416Z,100093.63
2023-03-05T20:26:47.557Z,100102.03
2023-03-05T20:29:18.264Z,100099.09
2023-03-05T20:31:47.087Z,100100.00
2023-03-05T20:34:19.558Z,100092.78
2023-03-05T20:36:48.005Z,100095.94
2023-03-05T20:39:16.244Z,100093.66
2023-03-05T20:41:44.597Z,100092.75
2023-03-05T20:44:13.694Z,100093.03
2023-03-05T20:46:51.685Z,100093.03
2023-03-05T20:49:19.696Z,100085.56
2023-03-05T20:51:50.120Z,100082.75
2023-03-05T20:54:20.080Z,100082.03
2023-03-05T20:56:48.147Z,100074.97
2023-03-05T20:59:17.573Z,100076.03
2023-03-05T21:01:45.480Z,100063.34
2023-03-05T21:04:13.459Z,100059.91
2023-03-05T21:06:41.477Z,100060.69
2023-03-05T21:09:09.347Z,100065.44
2023-03-05T21:11:37.994Z,100056.31
2023-03-05T21:14:06.039Z,100057.13
2023-03-05T21:16:36.732Z,100055.75
2023-03-05T21:19:04.708Z,100055.41
2023-03-05T21:21:32.598Z,100047.16
2023-03-05T21:24:00.554Z,100053.34
2023-03-05T21:26:28.669Z,100051.22
2023-03-05T21:28:56.937Z,100044.16
2023-03-05T21:31:26.357Z,100039.88
2023-03-05T21:33:54.508Z,100040.56
2023-03-05T21:36:22.432Z,100031.94
2023-03-05T21:38:50.892Z,100032.22
2023-03-05T21:41:20.475Z,100033.28
2023-03-05T21:43:48.492Z,100031.03
2023-03-05T21:46:16.705Z,100027.03
2023-03-05T21:48:44.609Z,100027.28
2023-03-05T21:51:16.960Z,100018.34
2023-03-05T21:53:44.916Z,100013.75
2023-03-05T21:56:19.217Z,100009.13
2023-03-05T21:58:47.781Z,100010.66
2023-03-05T22:01:18.467Z,100010.56
2023-03-05T22:03:47.129Z,100005.19
2023-03-05T22:06:19.099Z,99993.88
2023-03-05T22:08:47.368Z,100001.00
2023-03-05T22:11:18.412Z,99993.53
2023-03-05T22:13:46.364Z,99996.31
2023-03-05T22:16:25.830Z,99996.97
2023-03-05T22:18:56.874Z,99990.59
2023-03-05T22:21:27.491Z,99991.09
2023-03-05T22:23:59.273Z,99987.44
2023-03-05T22:26:35.686Z,99977.00
2023-03-05T22:29:05.284Z,99974.31
2023-03-05T22:31:33.240Z,99965.38
2023-03-05T22:34:01.274Z,99968.41
2023-03-05T22:36:29.235Z,99967.22
2023-03-05T22:38:57.198Z,99964.69
2023-03-05T22:41:25.170Z,99958.38
2023-03-05T22:43:53.276Z,99949.75
2023-03-05T22:46:25.957Z,99938.88
2023-03-05T22:48:54.655Z,99945.66
2023-03-05T22:51:22.616Z,99948.81
2023-03-05T22:53:50.783Z,99945.66
2023-03-05T22:56:20.558Z,99944.19
2023-03-05T22:58:48.740Z,99936.13
2023-03-05T23:01:26.454Z,99936.44
2023-03-05T23:04:03.256Z,99936.69
2023-03-05T23:06:35.757Z,99931.69
2023-03-05T23:09:03.844Z,99932.00
2023-03-05T23:11:31.837Z,99924.34
2023-03-05T23:13:59.748Z,99927.41
2023-03-05T23:16:27.646Z,99922.53
2023-03-05T23:18:56.137Z,99919.22
2023-03-05T23:21:24.056Z,99913.66
2023-03-05T23:23:53.078Z,99920.69
2023-03-05T23:26:21.081Z,99922.38
2023-03-05T23:28:49.147Z,99916.31
2023-03-05T23:31:20.529Z,99909.09
2023-03-05T23:33:48.563Z,99910.75
2023-03-05T23:36:19.803Z,99906.72
2023-03-05T23:38:48.434Z,99908.75
2023-03-05T23:41:16.345Z,99904.22
2023-03-05T23:43:44.258Z,99911.53
2023-03-05T23:46:12.676Z,99902.19
2023-03-05T23:48:41.153Z,99891.84
2023-03-05T23:51:11.241Z,99889.44
2023-03-05T23:53:39.160Z,99886.84
2023-03-05T23:56:12.302Z,99895.16
2023-03-05T23:58:42.749Z,99885.13
